Time;durP1;ratioP1;P1;durP2;ratioP2;P2;SDS_P1;SDS_P2;PMS_P1;PMS_P2;Temp;Humidity;BMP_temperature;BMP_pressure;BME280_temperature;BME280_humidity;BME280_pressure;Samples;Min_cycle;Max_cycle;Signal;HPM_P1;HPM_P2
2023/09/19 00:00:26;;;;;;;2.17;1.05;;;;;;;;;;5039280;28;20140;-83
2023/09/19 00:02:59;;;;;;;1.75;1.10;;;;;;;;;;5035412;28;20041;-83
2023/09/19 00:05:28;;;;;;;4.03;1.08;;;;;;;;;;5031843;28;20061;-82
2023/09/19 00:07:58;;;;;;;3.45;1.10;;;;;;;;;;5028059;28;20095;-83
2023/09/19 00:10:30;;;;;;;1.83;1.08;;;;;;;;;;5032681;28;20021;-83
2023/09/19 00:12:58;;;;;;;2.97;1.40;;;;;;;;;;5041379;28;20475;-83
2023/09/19 00:15:24;;;;;;;5.22;1.13;;;;;;;;;;5040931;28;20490;-84
2023/09/19 00:17:52;;;;;;;1.85;1.10;;;;;;;;;;5042051;28;20127;-83
2023/09/19 00:20:18;;;;;;;2.42;1.00;;;;;;;;;;5032974;28;20037;-83
2023/09/19 00:22:47;;;;;;;1.85;1.10;;;;;;;;;;5021517;28;20029;-83
2023/09/19 00:25:15;;;;;;;2.22;1.10;;;;;;;;;;5028719;28;20037;-83
2023/09/19 00:27:42;;;;;;;4.20;1.23;;;;;;;;;;5028261;28;20034;-83
2023/09/19 00:30:21;;;;;;;3.15;1.27;;;;;;;;;;5034893;28;20447;-83
2023/09/19 00:32:54;;;;;;;2.28;1.17;;;;;;;;;;5039244;28;20033;-83
2023/09/19 00:35:23;;;;;;;2.58;1.00;;;;;;;;;;5042664;28;20030;-82
2023/09/19 00:37:49;;;;;;;1.83;1.08;;;;;;;;;;5024703;28;20029;-83
2023/09/19 00:40:15;;;;;;;2.35;1.23;;;;;;;;;;5038133;28;20378;-82
2023/09/19 00:42:45;;;;;;;4.50;1.20;;;;;;;;;;5033905;28;20030;-83
2023/09/19 00:45:12;;;;;;;1.25;0.93;;;;;;;;;;5015986;28;20458;-83
2023/09/19 00:47:49;;;;;;;2.10;1.13;;;;;;;;;;5021929;28;20041;-83
2023/09/19 00:50:17;;;;;;;2.40;1.00;;;;;;;;;;5036468;28;20049;-83
2023/09/19 00:52:43;;;;;;;1.83;1.08;;;;;;;;;;5040797;28;20112;-83
2023/09/19 00:55:10;;;;;;;3.63;1.20;;;;;;;;;;5043759;28;20032;-82
2023/09/19 00:57:38;;;;;;;3.10;1.10;;;;;;;;;;5020166;28;20083;-82
2023/09/19 01:00:05;;;;;;;3.03;1.40;;;;;;;;;;5033852;28;20665;-82
2023/09/19 01:02:32;;;;;;;3.05;1.00;;;;;;;;;;5034558;28;20048;-82
2023/09/19 01:04:58;;;;;;;2.35;1.10;;;;;;;;;;5031129;28;20528;-83
2023/09/19 01:07:24;;;;;;;1.67;1.20;;;;;;;;;;5019137;28;20119;-83
2023/09/19 01:09:50;;;;;;;2.42;1.30;;;;;;;;;;5038445;28;20065;-83
2023/09/19 01:12:21;;;;;;;1.98;1.00;;;;;;;;;;5038323;28;20025;-82
2023/09/19 01:14:58;;;;;;;2.45;1.38;;;;;;;;;;5023695;28;20022;-82
2023/09/19 01:17:31;;;;;;;1.58;1.00;;;;;;;;;;5038641;28;20091;-82
2023/09/19 01:20:31;;;;;;;3.97;1.27;;;;;;;;;;5034783;28;20040;-82
2023/09/19 01:23:13;;;;;;;1.55;0.90;;;;;;;;;;5018375;28;20040;-83
2023/09/19 01:26:06;;;;;;;2.72;1.10;;;;;;;;;;5032836;28;20038;-83
2023/09/19 01:28:54;;;;;;;2.75;0.90;;;;;;;;;;5036524;28;20766;-83
2023/09/19 01:31:21;;;;;;;2.75;1.00;;;;;;;;;;5035486;28;20381;-82
2023/09/19 01:33:59;;;;;;;2.75;1.10;;;;;;;;;;5024082;28;20438;-82
2023/09/19 01:36:29;;;;;;;2.88;1.30;;;;;;;;;;5039266;28;20025;-83
2023/09/19 01:38:57;;;;;;;3.38;1.10;;;;;;;;;;5036375;28;20043;-82
2023/09/19 01:41:33;;;;;;;4.05;1.13;;;;;;;;;;5034770;28;20096;-83
2023/09/19 01:44:03;;;;;;;2.05;1.00;;;;;;;;;;5021792;28;20035;-83
2023/09/19 01:46:41;;;;;;;2.20;1.20;;;;;;;;;;5026059;28;20117;-83
2023/09/19 01:49:27;;;;;;;1.45;1.05;;;;;;;;;;5036828;28;20040;-82
2023/09/19 01:52:06;;;;;;;1.52;1.00;;;;;;;;;;5034483;28;20684;-83
2023/09/19 01:54:45;;;;;;;1.85;1.10;;;;;;;;;;5036784;28;20037;-82
2023/09/19 01:57:17;;;;;;;2.45;1.08;;;;;;;;;;5039204;28;20382;-82
2023/09/19 01:59:52;;;;;;;2.60;1.00;;;;;;;;;;5031869;28;20487;-82
2023/09/19 02:02:22;;;;;;;1.42;1.05;;;;;;;;;;5021445;28;20052;-83
2023/09/19 02:04:49;;;;;;;3.08;1.00;;;;;;;;;;5024453;28;20037;-83
2023/09/19 02:07:15;;;;;;;2.97;1.15;;;;;;;;;;5018724;28;20030;-82
2023/09/19 02:09:42;;;;;;;2.60;1.20;;;;;;;;;;5032682;28;20034;-82
2023/09/19 02:12:09;;;;;;;1.92;1.10;;;;;;;;;;5032844;28;20033;-83
2023/09/19 02:14:36;;;;;;;3.15;1.10;;;;;;;;;;5019224;28;20117;-82
2023/09/19 02:17:07;;;;;;;2.25;1.10;;;;;;;;;;5035987;28;20033;-82
2023/09/19 02:19:33;;;;;;;4.45;1.23;;;;;;;;;;5035225;28;20025;-82
2023/09/19 02:22:00;;;;;;;1.92;1.00;;;;;;;;;;5029177;28;20025;-82
2023/09/19 02:24:26;;;;;;;1.95;1.08;;;;;;;;;;5017027;28;20065;-83
2023/09/19 02:26:52;;;;;;;2.95;1.15;;;;;;;;;;5043712;28;20112;-82
2023/09/19 02:29:18;;;;;;;2.53;1.00;;;;;;;;;;5032566;28;20108;-82
2023/09/19 02:31:44;;;;;;;2.00;1.00;;;;;;;;;;5035423;28;20487;-82
2023/09/19 02:34:10;;;;;;;2.67;1.10;;;;;;;;;;5038347;28;20034;-82
2023/09/19 02:36:36;;;;;;;1.88;1.00;;;;;;;;;;5034682;28;20474;-82
2023/09/19 02:39:01;;;;;;;3.20;1.20;;;;;;;;;;5033721;28;20092;-82
2023/09/19 02:41:29;;;;;;;1.55;1.17;;;;;;;;;;5031358;28;20026;-82
2023/09/19 02:43:55;;;;;;;1.98;1.00;;;;;;;;;;5020315;28;20038;-83
2023/09/19 02:46:20;;;;;;;2.75;1.00;;;;;;;;;;5046461;28;20568;-82
2023/09/19 02:48:47;;;;;;;2.25;1.08;;;;;;;;;;5033983;28;20472;-82
2023/09/19 02:51:13;;;;;;;3.03;1.00;;;;;;;;;;5030115;28;20391;-82
2023/09/19 02:53:39;;;;;;;3.42;1.00;;;;;;;;;;5035552;28;20025;-82
2023/09/19 02:56:05;;;;;;;3.90;1.15;;;;;;;;;;5019662;28;20051;-82
2023/09/19 02:58:35;;;;;;;1.90;1.20;;;;;;;;;;5030224;28;20033;-82
2023/09/19 03:01:08;;;;;;;2.75;1.02;;;;;;;;;;5029113;28;20110;-83
2023/09/19 03:03:34;;;;;;;2.60;1.10;;;;;;;;;;5034033;28;20056;-83
2023/09/19 03:06:03;;;;;;;2.47;1.20;;;;;;;;;;5041148;28;20530;-83
2023/09/19 03:08:29;;;;;;;2.97;1.20;;;;;;;;;;5031751;28;20033;-83
2023/09/19 03:10:55;;;;;;;2.40;1.20;;;;;;;;;;5021845;28;20132;-83
2023/09/19 03:13:20;;;;;;;2.38;1.15;;;;;;;;;;5017363;28;20105;-82
2023/09/19 03:15:47;;;;;;;2.80;1.33;;;;;;;;;;5036342;28;20124;-82
2023/09/19 03:18:13;;;;;;;2.00;1.20;;;;;;;;;;5030322;28;20034;-82
2023/09/19 03:20:39;;;;;;;3.25;1.20;;;;;;;;;;5005264;28;20095;-82
2023/09/19 03:23:06;;;;;;;2.13;1.20;;;;;;;;;;5038205;28;20505;-83
2023/09/19 03:25:34;;;;;;;2.38;1.33;;;;;;;;;;5045602;28;20024;-83
2023/09/19 03:28:00;;;;;;;2.80;1.20;;;;;;;;;;5016921;28;20041;-82
2023/09/19 03:30:26;;;;;;;1.95;1.20;;;;;;;;;;5034282;28;20030;-82
2023/09/19 03:32:52;;;;;;;2.85;1.10;;;;;;;;;;5036903;28;20034;-83
2023/09/19 03:35:18;;;;;;;1.63;1.13;;;;;;;;;;5019797;28;20029;-83
2023/09/19 03:37:45;;;;;;;3.38;1.17;;;;;;;;;;5033887;28;20033;-83
2023/09/19 03:40:14;;;;;;;2.67;1.20;;;;;;;;;;5032243;28;20034;-80
2023/09/19 03:42:40;;;;;;;2.58;1.30;;;;;;;;;;5024558;28;20087;-83
2023/09/19 03:45:12;;;;;;;1.85;1.20;;;;;;;;;;5047230;28;20033;-82
2023/09/19 03:47:41;;;;;;;2.10;1.10;;;;;;;;;;5035834;28;20045;-83
2023/09/19 03:50:10;;;;;;;2.33;1.20;;;;;;;;;;5034967;28;20022;-82
2023/09/19 03:52:36;;;;;;;2.15;1.20;;;;;;;;;;5034623;28;20026;-82
2023/09/19 03:55:05;;;;;;;1.67;1.20;;;;;;;;;;5019202;28;20035;-83
2023/09/19 03:57:31;;;;;;;2.78;1.27;;;;;;;;;;5033497;28;20096;-82
2023/09/19 03:59:56;;;;;;;2.75;1.23;;;;;;;;;;5034396;28;20476;-82
2023/09/19 04:02:23;;;;;;;3.42;1.40;;;;;;;;;;5047221;28;20060;-83
2023/09/19 04:04:50;;;;;;;1.70;1.13;;;;;;;;;;5048182;28;20030;-83
2023/09/19 04:07:16;;;;;;;3.63;1.23;;;;;;;;;;5034918;28;20371;-83
2023/09/19 04:09:42;;;;;;;2.78;1.20;;;;;;;;;;5017110;28;20573;-83
2023/09/19 04:12:11;;;;;;;1.55;1.02;;;;;;;;;;5030537;28;20026;-83
2023/09/19 04:14:37;;;;;;;1.88;1.05;;;;;;;;;;5022627;28;20089;-83
2023/09/19 04:17:03;;;;;;;3.85;1.30;;;;;;;;;;5035329;28;20083;-82
2023/09/19 04:19:29;;;;;;;3.33;1.25;;;;;;;;;;5039364;28;20036;-82
2023/09/19 04:21:54;;;;;;;4.20;1.40;;;;;;;;;;5046880;28;20356;-83
2023/09/19 04:24:20;;;;;;;2.17;1.15;;;;;;;;;;5046813;28;20039;-83
2023/09/19 04:26:45;;;;;;;2.50;1.10;;;;;;;;;;5041559;28;20512;-83
2023/09/19 04:29:13;;;;;;;1.50;1.13;;;;;;;;;;5035346;28;20029;-83
2023/09/19 04:31:40;;;;;;;2.17;1.30;;;;;;;;;;5017944;28;20063;-83
2023/09/19 04:34:08;;;;;;;1.60;1.02;;;;;;;;;;5025591;28;20033;-83
2023/09/19 04:36:34;;;;;;;2.63;1.35;;;;;;;;;;5026844;28;20144;-83
2023/09/19 04:39:01;;;;;;;3.53;1.30;;;;;;;;;;5037311;28;20124;-83
2023/09/19 04:41:27;;;;;;;2.95;1.40;;;;;;;;;;5045535;28;20472;-83
2023/09/19 04:43:52;;;;;;;3.50;1.30;;;;;;;;;;5044116;28;20047;-83
2023/09/19 04:46:18;;;;;;;2.28;1.35;;;;;;;;;;5037846;28;20045;-83
2023/09/19 04:48:43;;;;;;;2.80;1.20;;;;;;;;;;5037340;28;20398;-82
2023/09/19 04:51:10;;;;;;;2.58;1.30;;;;;;;;;;5029497;28;20034;-82
2023/09/19 04:53:36;;;;;;;3.53;1.27;;;;;;;;;;5017346;28;20038;-82
2023/09/19 04:56:03;;;;;;;2.42;1.17;;;;;;;;;;5033906;28;20044;-82
2023/09/19 04:58:29;;;;;;;3.50;1.33;;;;;;;;;;5038450;28;20039;-82
2023/09/19 05:00:56;;;;;;;2.85;1.30;;;;;;;;;;5041151;28;20029;-83
2023/09/19 05:03:22;;;;;;;1.70;1.20;;;;;;;;;;5042144;28;20086;-83
2023/09/19 05:05:48;;;;;;;2.65;1.30;;;;;;;;;;5041049;28;20037;-83
2023/09/19 05:08:14;;;;;;;2.53;1.30;;;;;;;;;;5039168;28;20120;-83
2023/09/19 05:10:40;;;;;;;4.28;1.35;;;;;;;;;;5032088;28;20372;-82
2023/09/19 05:13:07;;;;;;;1.80;1.10;;;;;;;;;;5021894;28;20116;-82
2023/09/19 05:15:33;;;;;;;2.13;1.13;;;;;;;;;;5035203;28;20086;-82
2023/09/19 05:17:59;;;;;;;3.05;1.50;;;;;;;;;;5038491;28;20120;-82
2023/09/19 05:20:29;;;;;;;2.45;1.27;;;;;;;;;;5040054;28;20038;-82
2023/09/19 05:23:01;;;;;;;3.35;1.17;;;;;;;;;;5039700;28;20420;-82
2023/09/19 05:25:29;;;;;;;2.03;1.33;;;;;;;;;;5036296;28;20041;-82
2023/09/19 05:27:57;;;;;;;2.83;1.40;;;;;;;;;;5035788;28;20022;-83
2023/09/19 05:30:23;;;;;;;4.72;1.40;;;;;;;;;;5030432;28;20037;-82
2023/09/19 05:32:49;;;;;;;3.95;1.30;;;;;;;;;;5022623;28;20510;-82
2023/09/19 05:35:15;;;;;;;2.38;1.10;;;;;;;;;;5017905;28;20034;-83
2023/09/19 05:37:40;;;;;;;1.80;1.05;;;;;;;;;;5038223;28;20034;-83
2023/09/19 05:40:10;;;;;;;1.80;1.20;;;;;;;;;;5038551;28;20409;-82
2023/09/19 05:42:35;;;;;;;1.95;1.25;;;;;;;;;;5038003;28;20043;-82
2023/09/19 05:45:01;;;;;;;3.63;1.20;;;;;;;;;;5036858;28;20022;-82
2023/09/19 05:47:27;;;;;;;1.70;1.08;;;;;;;;;;5035474;28;20040;-82
2023/09/19 05:49:53;;;;;;;1.85;1.10;;;;;;;;;;5030475;28;20487;-82
2023/09/19 05:52:19;;;;;;;4.13;1.30;;;;;;;;;;5025029;28;20037;-83
2023/09/19 05:54:45;;;;;;;1.40;1.00;;;;;;;;;;5023451;28;20037;-82
2023/09/19 05:57:12;;;;;;;1.90;1.00;;;;;;;;;;5038595;28;20525;-82
2023/09/19 05:59:39;;;;;;;0.88;0.75;;;;;;;;;;5038001;28;20025;-82
2023/09/19 06:02:06;;;;;;;1.42;0.90;;;;;;;;;;5020785;28;20049;-83
2023/09/19 06:04:31;;;;;;;0.98;0.70;;;;;;;;;;5040876;28;20037;-83
2023/09/19 06:06:58;;;;;;;2.03;0.80;;;;;;;;;;5037989;28;20025;-82
2023/09/19 06:09:23;;;;;;;1.67;0.70;;;;;;;;;;5033380;28;20044;-82
2023/09/19 06:11:49;;;;;;;2.13;0.60;;;;;;;;;;5031359;28;20040;-82
2023/09/19 06:14:17;;;;;;;1.88;0.80;;;;;;;;;;5029050;28;20076;-82
2023/09/19 06:16:43;;;;;;;2.15;0.90;;;;;;;;;;5036351;28;20114;-82
2023/09/19 06:19:09;;;;;;;2.28;1.02;;;;;;;;;;5038234;28;20089;-82
2023/09/19 06:21:36;;;;;;;4.43;1.00;;;;;;;;;;5036442;28;20033;-82
2023/09/19 06:24:02;;;;;;;2.85;1.10;;;;;;;;;;5038380;28;20043;-82
2023/09/19 06:26:29;;;;;;;2.80;1.35;;;;;;;;;;5036877;28;20510;-82
2023/09/19 06:28:55;;;;;;;3.05;1.20;;;;;;;;;;5041048;28;20029;-82
2023/09/19 06:31:22;;;;;;;2.45;1.13;;;;;;;;;;5022736;28;20029;-82
2023/09/19 06:33:48;;;;;;;3.00;1.20;;;;;;;;;;5027470;28;20086;-82
2023/09/19 06:36:15;;;;;;;5.05;1.30;;;;;;;;;;5030882;28;20442;-83
2023/09/19 06:38:40;;;;;;;1.55;1.00;;;;;;;;;;5031251;28;20483;-82
2023/09/19 06:41:09;;;;;;;1.40;1.00;;;;;;;;;;5031623;28;20044;-84
2023/09/19 06:43:35;;;;;;;2.47;1.45;;;;;;;;;;5032299;28;20037;-83
2023/09/19 06:46:01;;;;;;;2.72;1.25;;;;;;;;;;5031791;28;20090;-83
2023/09/19 06:48:27;;;;;;;1.73;1.10;;;;;;;;;;5027666;28;20128;-82
2023/09/19 06:50:58;;;;;;;3.22;1.20;;;;;;;;;;5027095;28;20108;-82
2023/09/19 06:53:24;;;;;;;2.15;1.23;;;;;;;;;;5016324;28;20033;-83
2023/09/19 06:55:53;;;;;;;4.80;1.20;;;;;;;;;;5030545;28;20029;-81
2023/09/19 06:58:20;;;;;;;2.47;1.23;;;;;;;;;;5029976;28;20717;-82
2023/09/19 07:00:45;;;;;;;2.55;1.20;;;;;;;;;;5030458;28;20503;-82
2023/09/19 07:03:13;;;;;;;2.83;1.50;;;;;;;;;;5037053;28;20088;-81
2023/09/19 07:05:40;;;;;;;3.63;1.42;;;;;;;;;;5036223;28;20121;-83
2023/09/19 07:08:07;;;;;;;2.00;1.30;;;;;;;;;;5031389;28;20064;-82
2023/09/19 07:10:33;;;;;;;7.40;1.42;;;;;;;;;;5030241;28;20041;-83
2023/09/19 07:13:03;;;;;;;2.92;1.30;;;;;;;;;;5042708;28;20025;-82
2023/09/19 07:15:35;;;;;;;2.53;1.30;;;;;;;;;;5035667;28;20044;-82
2023/09/19 07:18:01;;;;;;;1.98;1.10;;;;;;;;;;5031565;28;20037;-82
2023/09/19 07:20:27;;;;;;;2.15;1.27;;;;;;;;;;5030801;28;20431;-82
2023/09/19 07:22:54;;;;;;;1.38;1.08;;;;;;;;;;5034462;28;20033;-83
2023/09/19 07:25:21;;;;;;;1.75;1.23;;;;;;;;;;5032972;28;20017;-82
2023/09/19 07:27:46;;;;;;;3.25;1.15;;;;;;;;;;5023757;28;20033;-83
2023/09/19 07:30:12;;;;;;;4.78;1.30;;;;;;;;;;5026650;28;20053;-83
2023/09/19 07:32:38;;;;;;;1.70;1.13;;;;;;;;;;5018902;28;20033;-80
2023/09/19 07:35:05;;;;;;;2.50;1.30;;;;;;;;;;5039080;28;20041;-81
2023/09/19 07:37:33;;;;;;;2.88;1.17;;;;;;;;;;5036269;28;20041;-83
2023/09/19 07:40:06;;;;;;;1.80;1.20;;;;;;;;;;5030373;28;20034;-82
2023/09/19 07:42:33;;;;;;;;;;;;;;;;;;5032916;28;20062;-84
2023/09/19 07:44:59;;;;;;;5.60;1.33;;;;;;;;;;5033296;28;20079;-83
2023/09/19 07:47:25;;;;;;;2.38;1.40;;;;;;;;;;5031031;28;20033;-83
2023/09/19 07:49:50;;;;;;;3.05;1.13;;;;;;;;;;5031928;28;20035;-83
2023/09/19 07:52:16;;;;;;;3.10;1.30;;;;;;;;;;5047128;28;20755;-83
2023/09/19 07:54:43;;;;;;;3.08;1.40;;;;;;;;;;5039626;28;20025;-83
2023/09/19 07:57:10;;;;;;;2.35;1.40;;;;;;;;;;5032831;28;20025;-83
2023/09/19 07:59:36;;;;;;;2.47;1.13;;;;;;;;;;5031598;28;20042;-83
2023/09/19 08:02:04;;;;;;;1.48;1.15;;;;;;;;;;5029026;28;20037;-84
2023/09/19 08:04:33;;;;;;;2.35;1.38;;;;;;;;;;5034535;28;20042;-82
2023/09/19 08:07:03;;;;;;;2.22;1.20;;;;;;;;;;5034802;28;20530;-84
2023/09/19 08:09:33;;;;;;;2.90;1.30;;;;;;;;;;5039516;28;20040;-83
2023/09/19 08:11:59;;;;;;;3.22;1.20;;;;;;;;;;5046212;28;20056;-83
2023/09/19 08:14:25;;;;;;;2.20;1.33;;;;;;;;;;5043085;28;20186;-83
2023/09/19 08:16:51;;;;;;;4.75;1.25;;;;;;;;;;5033857;28;20089;-84
2023/09/19 08:19:16;;;;;;;2.28;1.00;;;;;;;;;;5033785;28;20104;-83
2023/09/19 08:21:46;;;;;;;1.88;1.15;;;;;;;;;;5033134;28;20034;-84
2023/09/19 08:24:12;;;;;;;2.05;0.98;;;;;;;;;;5036639;28;20055;-84
2023/09/19 08:26:37;;;;;;;1.33;1.08;;;;;;;;;;5032207;28;20473;-84
2023/09/19 08:29:04;;;;;;;2.58;1.00;;;;;;;;;;5038850;28;20028;-83
2023/09/19 08:31:30;;;;;;;8.30;1.20;;;;;;;;;;5045389;28;20099;-84
2023/09/19 08:33:59;;;;;;;1.98;0.98;;;;;;;;;;5034605;28;20491;-83
2023/09/19 08:36:25;;;;;;;1.63;1.10;;;;;;;;;;5032171;28;20534;-82
2023/09/19 08:38:50;;;;;;;2.55;1.48;;;;;;;;;;5024561;28;20045;-83
2023/09/19 08:41:17;;;;;;;2.05;1.20;;;;;;;;;;5017770;28;20089;-84
2023/09/19 08:43:43;;;;;;;2.47;0.90;;;;;;;;;;5036299;28;20057;-85
2023/09/19 08:46:16;;;;;;;1.70;1.00;;;;;;;;;;5031625;28;20029;-85
2023/09/19 08:48:51;;;;;;;2.72;0.93;;;;;;;;;;5043070;28;20491;-85
2023/09/19 08:51:29;;;;;;;1.65;1.00;;;;;;;;;;5042775;28;20025;-85
2023/09/19 08:54:05;;;;;;;1.60;0.90;;;;;;;;;;5040964;28;20133;-84
2023/09/19 08:56:32;;;;;;;2.45;0.80;;;;;;;;;;5030837;28;20037;-83
2023/09/19 08:59:09;;;;;;;2.35;0.90;;;;;;;;;;5023031;28;20036;-83
2023/09/19 09:01:35;;;;;;;2.50;1.00;;;;;;;;;;5042036;28;20029;-83
2023/09/19 09:04:02;;;;;;;1.73;1.15;;;;;;;;;;5036793;28;20061;-83
2023/09/19 09:06:28;;;;;;;1.65;1.08;;;;;;;;;;5024014;28;20048;-83
2023/09/19 09:08:54;;;;;;;3.42;1.10;;;;;;;;;;5049561;28;20051;-83
2023/09/19 09:11:21;;;;;;;1.38;0.90;;;;;;;;;;5024045;28;20025;-83
2023/09/19 09:13:47;;;;;;;2.47;0.95;;;;;;;;;;5042664;28;20043;-83
2023/09/19 09:16:17;;;;;;;2.63;1.20;;;;;;;;;;5034214;28;20661;-83
2023/09/19 09:18:44;;;;;;;3.25;0.93;;;;;;;;;;5022439;28;20041;-83
2023/09/19 09:21:10;;;;;;;3.38;1.00;;;;;;;;;;5023704;28;20113;-83
2023/09/19 09:23:35;;;;;;;1.48;0.80;;;;;;;;;;5031800;28;20073;-84
2023/09/19 09:26:02;;;;;;;1.58;0.80;;;;;;;;;;5034104;28;20128;-83
2023/09/19 09:28:30;;;;;;;2.13;0.90;;;;;;;;;;5042391;28;20054;-83
2023/09/19 09:30:58;;;;;;;4.15;0.90;;;;;;;;;;5019474;28;20029;-83
2023/09/19 09:33:24;;;;;;;3.28;1.00;;;;;;;;;;5036188;28;20044;-83
2023/09/19 09:35:59;;;;;;;3.05;1.00;;;;;;;;;;5038255;28;20117;-83
2023/09/19 09:38:27;;;;;;;1.27;0.80;;;;;;;;;;5030089;28;20036;-83
2023/09/19 09:41:07;;;;;;;1.98;1.02;;;;;;;;;;5034310;28;20033;-83
2023/09/19 09:43:41;;;;;;;1.92;1.00;;;;;;;;;;5031903;28;20045;-83
2023/09/19 09:51:39;;;;;;;1.27;0.80;;;;;;;;;;5042461;28;20041;-84
2023/09/19 09:54:21;;;;;;;1.17;0.70;;;;;;;;;;5037541;28;20447;-84
2023/09/19 09:57:13;;;;;;;1.13;0.80;;;;;;;;;;5034763;28;20021;-84
2023/09/19 09:59:49;;;;;;;1.50;0.80;;;;;;;;;;5039443;28;20108;-85
2023/09/19 10:02:28;;;;;;;1.27;0.85;;;;;;;;;;5036942;28;20053;-84
2023/09/19 10:04:59;;;;;;;1.83;0.90;;;;;;;;;;5036622;28;20056;-85
2023/09/19 10:07:28;;;;;;;2.65;0.90;;;;;;;;;;5037709;28;20037;-83
2023/09/19 10:09:59;;;;;;;1.60;0.95;;;;;;;;;;5033536;28;20116;-84
2023/09/19 10:12:27;;;;;;;1.90;0.88;;;;;;;;;;5047747;28;20080;-83
2023/09/19 10:14:53;;;;;;;1.00;0.85;;;;;;;;;;5049400;28;20029;-84
2023/09/19 10:17:23;;;;;;;1.70;0.80;;;;;;;;;;5038567;28;20038;-84
2023/09/19 10:19:59;;;;;;;3.72;0.90;;;;;;;;;;5032566;28;20047;-84
2023/09/19 10:22:30;;;;;;;1.30;0.80;;;;;;;;;;5043813;28;20048;-86
2023/09/19 10:24:59;;;;;;;1.10;0.73;;;;;;;;;;5041699;28;20124;-84
2023/09/19 10:27:26;;;;;;;2.92;0.75;;;;;;;;;;5049006;28;20065;-84
2023/09/19 10:29:56;;;;;;;2.17;0.77;;;;;;;;;;5051394;28;20033;-86
2023/09/19 10:32:23;;;;;;;1.05;0.80;;;;;;;;;;5041903;28;20454;-84
2023/09/19 10:34:49;;;;;;;2.08;0.85;;;;;;;;;;5023065;28;20030;-84
2023/09/19 10:37:25;;;;;;;1.10;0.82;;;;;;;;;;5033747;28;20063;-84
2023/09/19 10:39:53;;;;;;;4.53;0.90;;;;;;;;;;5039771;28;20037;-84
2023/09/19 10:42:20;;;;;;;1.50;0.70;;;;;;;;;;5056174;28;20532;-84
2023/09/19 10:44:49;;;;;;;2.40;0.93;;;;;;;;;;5051110;28;20075;-86
2023/09/19 10:47:15;;;;;;;0.90;0.60;;;;;;;;;;5052097;28;20053;-85
2023/09/19 10:49:48;;;;;;;1.23;0.70;;;;;;;;;;5051642;28;20052;-85
2023/09/19 10:52:19;;;;;;;3.13;0.70;;;;;;;;;;5049523;28;20037;-85
2023/09/19 10:54:51;;;;;;;1.10;0.60;;;;;;;;;;5048492;28;20025;-84
2023/09/19 10:57:24;;;;;;;2.08;0.90;;;;;;;;;;5055679;28;20535;-85
2023/09/19 11:00:34;;;;;;;5.15;0.90;;;;;;;;;;5054898;28;20048;-85
2023/09/19 11:03:18;;;;;;;1.05;0.70;;;;;;;;;;5046683;28;20025;-85
2023/09/19 11:06:01;;;;;;;3.70;0.80;;;;;;;;;;5054078;28;20072;-85
2023/09/19 11:08:27;;;;;;;1.95;0.77;;;;;;;;;;5045230;28;20029;-85
2023/09/19 11:10:54;;;;;;;1.60;0.65;;;;;;;;;;5059881;28;20017;-85
2023/09/19 11:13:30;;;;;;;1.48;0.75;;;;;;;;;;5054580;28;20040;-83
2023/09/19 11:16:00;;;;;;;1.48;0.82;;;;;;;;;;5040869;28;20041;-85
2023/09/19 11:18:41;;;;;;;1.00;0.80;;;;;;;;;;5029208;28;20034;-84
2023/09/19 11:21:33;;;;;;;2.25;0.80;;;;;;;;;;5043189;28;20048;-85
2023/09/19 11:24:22;;;;;;;1.40;0.80;;;;;;;;;;5050144;28;20046;-82
2023/09/19 11:26:48;;;;;;;1.20;0.80;;;;;;;;;;5052482;28;20063;-85
2023/09/19 11:29:26;;;;;;;1.40;0.90;;;;;;;;;;5051631;28;20037;-85
2023/09/19 11:32:01;;;;;;;1.45;0.70;;;;;;;;;;5046829;28;20060;-85
2023/09/19 11:34:36;;;;;;;1.50;0.80;;;;;;;;;;5041475;28;20097;-87
2023/09/19 11:37:28;;;;;;;3.15;0.73;;;;;;;;;;5029497;28;20041;-82
2023/09/19 11:40:09;;;;;;;1.42;0.70;;;;;;;;;;5035013;28;20054;-82
2023/09/19 11:42:50;;;;;;;2.25;0.80;;;;;;;;;;5046988;28;20088;-83
2023/09/19 11:45:46;;;;;;;6.50;0.90;;;;;;;;;;5046495;28;20044;-83
2023/09/19 11:48:15;;;;;;;1.00;0.60;;;;;;;;;;5042241;28;20037;-84
2023/09/19 11:50:45;;;;;;;1.30;0.75;;;;;;;;;;5036091;28;20538;-83
2023/09/19 11:53:16;;;;;;;1.83;0.85;;;;;;;;;;5044904;28;20041;-83
2023/09/19 11:55:43;;;;;;;2.20;0.70;;;;;;;;;;5046872;28;20033;-83
2023/09/19 11:58:09;;;;;;;1.38;0.70;;;;;;;;;;5049616;28;20044;-83
2023/09/19 12:00:39;;;;;;;2.72;0.90;;;;;;;;;;5048327;28;20024;-84
2023/09/19 12:03:13;;;;;;;1.70;0.70;;;;;;;;;;5052295;28;20042;-83
2023/09/19 12:05:39;;;;;;;2.13;0.75;;;;;;;;;;5042740;28;20045;-83
2023/09/19 12:08:10;;;;;;;2.00;0.60;;;;;;;;;;5048102;28;20037;-83
2023/09/19 12:10:47;;;;;;;0.70;0.65;;;;;;;;;;5055181;28;20036;-87
2023/09/19 12:13:20;;;;;;;0.98;0.80;;;;;;;;;;5044325;28;20037;-84
2023/09/19 12:15:47;;;;;;;0.85;0.70;;;;;;;;;;5031745;28;20045;-82
2023/09/19 12:18:31;;;;;;;1.40;0.82;;;;;;;;;;5031195;28;20049;-84
2023/09/19 12:20:58;;;;;;;;;;;;;;;;;;5037214;28;20038;-83
2023/09/19 12:23:25;;;;;;;3.33;0.90;;;;;;;;;;5040600;28;19967;-83
2023/09/19 12:25:53;;;;;;;1.20;0.80;;;;;;;;;;5044815;28;20042;-82
2023/09/19 12:28:22;;;;;;;1.55;0.82;;;;;;;;;;5038374;28;20048;-83
2023/09/19 12:30:48;;;;;;;2.90;1.10;;;;;;;;;;5040457;28;20097;-83
2023/09/19 12:33:24;;;;;;;0.85;0.80;;;;;;;;;;5030643;28;20502;-83
2023/09/19 12:35:51;;;;;;;0.95;0.60;;;;;;;;;;5028985;28;20056;-84
2023/09/19 12:38:32;;;;;;;1.23;0.70;;;;;;;;;;5040096;28;20033;-83
2023/09/19 12:41:00;;;;;;;1.02;0.80;;;;;;;;;;5038426;28;20037;-83
2023/09/19 12:43:27;;;;;;;1.42;0.80;;;;;;;;;;5039589;28;20046;-84
2023/09/19 12:45:53;;;;;;;2.85;0.80;;;;;;;;;;5036802;28;20044;-83
2023/09/19 12:48:33;;;;;;;1.65;0.82;;;;;;;;;;5031863;28;20041;-83
2023/09/19 12:51:07;;;;;;;1.65;1.00;;;;;;;;;;5032784;28;20485;-83
2023/09/19 12:53:37;;;;;;;1.33;0.70;;;;;;;;;;5038847;28;20030;-84
2023/09/19 12:56:07;;;;;;;3.33;1.00;;;;;;;;;;5031461;28;20467;-84
2023/09/19 12:58:34;;;;;;;2.25;0.90;;;;;;;;;;5032478;28;20061;-84
2023/09/19 13:01:05;;;;;;;1.05;0.77;;;;;;;;;;5031508;28;20103;-83
2023/09/19 13:03:34;;;;;;;4.55;0.88;;;;;;;;;;5042891;28;20033;-84
2023/09/19 13:06:04;;;;;;;1.45;0.80;;;;;;;;;;5036930;28;20062;-84
2023/09/19 13:08:32;;;;;;;1.77;0.90;;;;;;;;;;5046421;28;20490;-83
2023/09/19 13:11:02;;;;;;;2.72;0.90;;;;;;;;;;5061393;23;20045;-81
2023/09/19 13:13:28;;;;;;;1.02;0.73;;;;;;;;;;5034414;28;20048;-83
2023/09/19 13:15:57;;;;;;;0.98;0.68;;;;;;;;;;5028475;28;20037;-80
2023/09/19 13:18:23;;;;;;;1.50;0.80;;;;;;;;;;5029942;28;20029;-84
2023/09/19 13:21:12;;;;;;;1.33;0.80;;;;;;;;;;5028030;28;20036;-86
2023/09/19 13:23:38;;;;;;;0.95;0.70;;;;;;;;;;5026448;28;20038;-82
2023/09/19 13:26:05;;;;;;;1.95;0.90;;;;;;;;;;5038574;28;20076;-81
2023/09/19 13:28:33;;;;;;;1.73;0.90;;;;;;;;;;5020481;28;20034;-84
2023/09/19 13:30:58;;;;;;;0.93;0.73;;;;;;;;;;5015285;28;20034;-82
2023/09/19 13:33:24;;;;;;;2.20;0.70;;;;;;;;;;5015731;28;20514;-85
2023/09/19 13:35:50;;;;;;;1.17;0.70;;;;;;;;;;5026077;28;20041;-83
2023/09/19 13:38:15;;;;;;;1.40;0.68;;;;;;;;;;5029109;28;20087;-83
2023/09/19 13:40:43;;;;;;;1.08;0.73;;;;;;;;;;5018987;28;20037;-84
2023/09/19 13:43:10;;;;;;;1.05;0.90;;;;;;;;;;5021848;28;20042;-83
2023/09/19 13:45:37;;;;;;;0.70;0.63;;;;;;;;;;5020923;28;20037;-83
2023/09/19 13:48:02;;;;;;;1.30;0.70;;;;;;;;;;5017032;28;20041;-84
2023/09/19 13:50:29;;;;;;;1.00;0.57;;;;;;;;;;5019212;28;20034;-82
2023/09/19 13:52:54;;;;;;;1.17;0.75;;;;;;;;;;5013995;28;20580;-83
2023/09/19 13:55:20;;;;;;;0.70;0.60;;;;;;;;;;5017001;28;20117;-84
2023/09/19 13:57:49;;;;;;;0.88;0.60;;;;;;;;;;5020274;28;20099;-81
2023/09/19 14:00:16;;;;;;;1.00;0.60;;;;;;;;;;5039816;28;20042;-84
2023/09/19 14:02:44;;;;;;;1.45;0.80;;;;;;;;;;5022510;28;20044;-84
2023/09/19 14:05:12;;;;;;;2.85;0.80;;;;;;;;;;5029658;28;20030;-81
2023/09/19 14:07:37;;;;;;;0.95;0.70;;;;;;;;;;5017450;28;20041;-81
2023/09/19 14:10:07;;;;;;;1.00;0.70;;;;;;;;;;5017437;28;20550;-82
2023/09/19 14:12:33;;;;;;;0.70;0.70;;;;;;;;;;5021602;28;20035;-86
2023/09/19 14:14:59;;;;;;;1.52;0.80;;;;;;;;;;5018456;28;20112;-84
2023/09/19 14:17:25;;;;;;;1.30;0.77;;;;;;;;;;5022585;28;20395;-84
2023/09/19 14:19:51;;;;;;;2.78;0.80;;;;;;;;;;5021554;28;20487;-84
2023/09/19 14:22:17;;;;;;;0.82;0.60;;;;;;;;;;5022896;28;20496;-82
2023/09/19 14:24:43;;;;;;;0.95;0.70;;;;;;;;;;5035861;28;20034;-86
2023/09/19 14:27:09;;;;;;;1.73;0.75;;;;;;;;;;5027286;28;20033;-82
2023/09/19 14:29:36;;;;;;;1.65;0.80;;;;;;;;;;5024020;28;20034;-82
2023/09/19 14:32:01;;;;;;;2.20;0.82;;;;;;;;;;5030966;28;20044;-85
2023/09/19 14:34:27;;;;;;;1.35;0.80;;;;;;;;;;5040057;28;20046;-83
2023/09/19 14:36:54;;;;;;;0.93;0.70;;;;;;;;;;5033293;28;20076;-82
2023/09/19 14:39:20;;;;;;;1.02;0.70;;;;;;;;;;5027013;28;20052;-84
2023/09/19 14:41:45;;;;;;;1.45;0.70;;;;;;;;;;5030973;28;20038;-86
2023/09/19 14:44:11;;;;;;;0.70;0.60;;;;;;;;;;5030239;28;20067;-83
2023/09/19 14:46:36;;;;;;;1.70;0.95;;;;;;;;;;5028312;28;20052;-83
2023/09/19 14:49:04;;;;;;;2.03;0.88;;;;;;;;;;5029752;28;20045;-83
2023/09/19 14:51:30;;;;;;;1.02;0.73;;;;;;;;;;5025720;28;20626;-84
2023/09/19 14:53:56;;;;;;;1.48;0.88;;;;;;;;;;5041021;28;20054;-84
2023/09/19 14:56:23;;;;;;;2.50;0.80;;;;;;;;;;5037108;28;20044;-83
2023/09/19 14:58:49;;;;;;;1.05;0.68;;;;;;;;;;5040260;28;20048;-83